createdAt,value
2022-09-15T00:02:19.331Z,17.17
2022-09-15T00:04:48.392Z,17.10
2022-09-15T00:07:16.855Z,16.96
2022-09-15T00:09:45.782Z,16.95
2022-09-15T00:12:17.011Z,16.79
2022-09-15T00:14:47.245Z,16.78
2022-09-15T00:17:16.237Z,16.94
2022-09-15T00:19:44.884Z,16.89
2022-09-15T00:22:13.831Z,16.94
2022-09-15T00:24:43.781Z,16.99
2022-09-15T00:27:12.530Z,16.99
2022-09-15T00:29:41.925Z,16.97
2022-09-15T00:32:13.052Z,17.02
2022-09-15T00:34:41.882Z,17.00
2022-09-15T00:37:10.650Z,16.68
2022-09-15T00:39:39.541Z,16.90
2022-09-15T00:42:08.590Z,16.77
2022-09-15T00:44:57.742Z,16.70
2022-09-15T00:47:31.660Z,16.70
2022-09-15T00:50:04.647Z,16.66
2022-09-15T00:52:40.557Z,16.44
2022-09-15T00:55:13.886Z,16.36
2022-09-15T00:57:48.990Z,16.42
2022-09-15T01:00:20.990Z,16.56
2022-09-15T01:02:52.292Z,16.54
2022-09-15T01:05:37.532Z,16.55
2022-09-15T01:08:09.943Z,16.60
2022-09-15T01:10:41.273Z,16.65
2022-09-15T01:13:13.552Z,16.74
2022-09-15T01:15:50.635Z,16.54
2022-09-15T01:18:36.562Z,16.61
2022-09-15T01:21:23.747Z,16.54
2022-09-15T01:24:30.976Z,16.47
2022-09-15T01:27:24.446Z,16.53
2022-09-15T01:30:05.727Z,16.59
2022-09-15T01:33:08.579Z,16.61
2022-09-15T01:35:53.416Z,16.56
2022-09-15T01:38:41.445Z,16.68
2022-09-15T01:41:17.212Z,16.33
2022-09-15T01:43:51.863Z,16.39
2022-09-15T01:46:25.711Z,16.26
2022-09-15T01:48:56.826Z,16.24
2022-09-15T01:51:27.285Z,16.11
2022-09-15T01:53:59.507Z,16.10
2022-09-15T01:56:27.980Z,16.08
2022-09-15T01:59:01.503Z,16.06
2022-09-15T02:01:41.060Z,16.05
2022-09-15T02:04:15.902Z,15.99
2022-09-15T02:06:53.528Z,16.03
2022-09-15T02:09:25.247Z,16.03
2022-09-15T02:12:04.257Z,16.22
2022-09-15T02:14:48.669Z,16.12
2022-09-15T02:17:23.105Z,16.09
2022-09-15T02:19:55.848Z,16.17
2022-09-15T02:22:28.108Z,16.18
2022-09-15T02:25:03.420Z,16.26
2022-09-15T02:27:37.805Z,16.37
2022-09-15T02:30:11.856Z,16.32
2022-09-15T02:32:49.006Z,16.34
2022-09-15T02:35:19.617Z,16.45
2022-09-15T02:37:51.019Z,16.43
2022-09-15T02:40:19.846Z,16.29
2022-09-15T02:42:56.064Z,16.30
2022-09-15T02:45:25.110Z,16.30
2022-09-15T02:47:55.287Z,16.28
2022-09-15T02:50:27.520Z,16.30
2022-09-15T02:52:56.517Z,16.30
2022-09-15T02:55:32.098Z,16.25
2022-09-15T02:58:01.300Z,16.12
2022-09-15T03:00:31.449Z,15.89
2022-09-15T03:03:01.351Z,15.88
2022-09-15T03:05:31.670Z,15.90
2022-09-15T03:08:02.482Z,15.90
2022-09-15T03:10:30.604Z,15.93
2022-09-15T03:12:59.279Z,15.96
2022-09-15T03:15:28.552Z,15.95
2022-09-15T03:17:58.095Z,15.74
2022-09-15T03:20:30.665Z,15.71
2022-09-15T03:23:03.434Z,15.72
2022-09-15T03:25:33.775Z,15.66
2022-09-15T03:28:02.112Z,15.73
2022-09-15T03:30:30.754Z,15.38
2022-09-15T03:32:58.886Z,15.43
2022-09-15T03:35:28.793Z,15.63
2022-09-15T03:37:56.973Z,15.67
2022-09-15T03:40:25.472Z,15.35
2022-09-15T03:42:53.567Z,15.33
2022-09-15T03:45:22.427Z,15.53
2022-09-15T03:47:50.892Z,15.59
2022-09-15T03:50:20.212Z,15.53
2022-09-15T03:52:50.091Z,15.54
2022-09-15T03:55:18.755Z,15.48
2022-09-15T03:57:46.816Z,15.38
2022-09-15T04:00:16.380Z,15.37
2022-09-15T04:02:44.603Z,15.28
2022-09-15T04:05:14.371Z,15.29
2022-09-15T04:07:43.291Z,15.25
2022-09-15T04:10:13.612Z,15.08
2022-09-15T04:12:44.731Z,15.21
2022-09-15T04:15:13.106Z,15.25
2022-09-15T04:17:41.535Z,15.26
2022-09-15T04:20:11.262Z,15.27
2022-09-15T04:22:39.478Z,14.99
2022-09-15T04:25:09.457Z,14.89
2022-09-15T04:27:39.532Z,14.85
2022-09-15T04:30:10.711Z,14.85
2022-09-15T04:32:39.334Z,14.89
2022-09-15T04:35:08.508Z,15.17
2022-09-15T04:37:36.936Z,15.23
2022-09-15T04:40:05.472Z,15.15
2022-09-15T04:42:34.102Z,15.08
2022-09-15T04:45:04.261Z,14.87
2022-09-15T04:47:32.375Z,14.86
2022-09-15T04:50:00.796Z,15.02
2022-09-15T04:52:30.352Z,15.09
2022-09-15T04:54:58.687Z,15.11
2022-09-15T04:57:26.795Z,15.11
2022-09-15T04:59:55.194Z,15.01
2022-09-15T05:02:25.023Z,15.02
2022-09-15T05:04:53.655Z,14.93
2022-09-15T05:07:22.158Z,14.81
2022-09-15T05:09:50.428Z,14.88
2022-09-15T05:12:18.536Z,14.93
2022-09-15T05:14:48.569Z,14.91
2022-09-15T05:17:16.627Z,14.71
2022-09-15T05:19:47.557Z,14.89
2022-09-15T05:22:15.940Z,14.96
2022-09-15T05:24:44.271Z,15.03
2022-09-15T05:27:14.260Z,15.07
2022-09-15T05:29:43.247Z,14.76
2022-09-15T05:32:11.634Z,14.90
2022-09-15T05:34:40.052Z,14.89
2022-09-15T05:37:10.605Z,14.99
2022-09-15T05:39:41.297Z,15.02
2022-09-15T05:42:10.512Z,15.02
2022-09-15T05:44:39.053Z,15.05
2022-09-15T05:47:07.402Z,15.06
2022-09-15T05:49:35.748Z,14.99
2022-09-15T05:52:05.347Z,14.95
2022-09-15T05:54:35.426Z,14.88
2022-09-15T05:57:03.799Z,15.06
2022-09-15T05:59:32.347Z,15.12
2022-09-15T06:02:00.690Z,15.14
2022-09-15T06:04:29.179Z,15.19
2022-09-15T06:06:58.665Z,15.21
2022-09-15T06:09:29.957Z,15.32
2022-09-15T06:11:59.974Z,15.38
2022-09-15T06:14:29.993Z,15.32
2022-09-15T06:17:00.483Z,15.28
2022-09-15T06:19:31.488Z,15.39
2022-09-15T06:22:00.234Z,15.31
2022-09-15T06:24:30.888Z,15.35
2022-09-15T06:27:04.588Z,15.47
2022-09-15T06:29:33.372Z,15.46
2022-09-15T06:32:03.079Z,15.48
2022-09-15T06:34:32.840Z,15.54
2022-09-15T06:37:01.519Z,15.59
2022-09-15T06:39:30.233Z,15.65
2022-09-15T06:42:02.670Z,15.46
2022-09-15T06:44:35.133Z,15.46
2022-09-15T06:47:04.036Z,15.57
2022-09-15T06:49:33.504Z,15.55
2022-09-15T06:52:02.891Z,15.62
2022-09-15T06:54:31.592Z,15.59
2022-09-15T06:57:01.253Z,15.67
2022-09-15T06:59:30.229Z,15.80
2022-09-15T07:02:04.716Z,15.73
2022-09-15T07:04:33.597Z,15.64
2022-09-15T07:07:02.100Z,15.68
2022-09-15T07:09:30.752Z,15.60
2022-09-15T07:11:59.206Z,15.63
2022-09-15T07:14:28.824Z,15.67
2022-09-15T07:16:57.263Z,15.72
2022-09-15T07:19:27.247Z,15.81
2022-09-15T07:21:55.544Z,15.89
2022-09-15T07:24:26.158Z,16.04
2022-09-15T07:26:54.703Z,15.93
2022-09-15T07:29:26.587Z,15.68
2022-09-15T07:31:55.258Z,15.67
2022-09-15T07:34:23.591Z,15.73
2022-09-15T07:36:53.683Z,15.78
2022-09-15T07:39:22.825Z,15.81
2022-09-15T07:41:53.977Z,15.79
2022-09-15T07:44:23.158Z,15.90
2022-09-15T07:46:51.586Z,15.86
2022-09-15T07:49:19.981Z,15.95
2022-09-15T07:51:49.390Z,15.96
2022-09-15T07:54:22.867Z,15.97
2022-09-15T07:56:51.671Z,16.03
2022-09-15T07:59:20.142Z,16.13
2022-09-15T08:01:48.675Z,16.26
2022-09-15T08:04:17.132Z,16.37
2022-09-15T08:06:45.395Z,16.44
2022-09-15T08:09:17.582Z,16.35
2022-09-15T08:11:48.651Z,16.57
2022-09-15T08:14:16.860Z,16.58
2022-09-15T08:16:45.371Z,16.59
2022-09-15T08:19:13.999Z,16.55
2022-09-15T08:21:42.794Z,16.48
2022-09-15T08:24:10.962Z,16.66
2022-09-15T08:26:39.166Z,16.81
2022-09-15T08:29:12.896Z,16.90
2022-09-15T08:31:41.917Z,16.86
2022-09-15T08:34:13.733Z,17.00
2022-09-15T08:36:42.113Z,16.89
2022-09-15T08:39:10.756Z,16.93
2022-09-15T08:41:41.650Z,17.14
2022-09-15T08:44:24.160Z,17.13
2022-09-15T08:46:58.226Z,17.07
2022-09-15T08:49:50.696Z,17.16
2022-09-15T08:52:27.985Z,17.06
2022-09-15T08:55:04.708Z,17.27
2022-09-15T08:57:33.049Z,17.17
2022-09-15T09:00:04.120Z,17.16
2022-09-15T09:03:17.211Z,17.38
2022-09-15T09:05:54.925Z,17.49
2022-09-15T09:08:57.274Z,17.52
2022-09-15T09:11:38.307Z,17.51
2022-09-15T09:14:18.041Z,17.81
2022-09-15T09:17:01.331Z,17.76
2022-09-15T09:19:50.785Z,17.71
2022-09-15T09:22:24.781Z,17.80
2022-09-15T09:24:56.766Z,17.76
2022-09-15T09:27:29.576Z,18.01
2022-09-15T09:30:04.609Z,18.02
2022-09-15T09:32:46.536Z,18.14
2022-09-15T09:35:21.910Z,17.93
2022-09-15T09:37:52.817Z,18.03
2022-09-15T09:40:22.365Z,17.95
2022-09-15T09:42:51.295Z,17.83
2022-09-15T09:45:22.937Z,17.80
2022-09-15T09:47:57.296Z,17.91
2022-09-15T09:50:38.933Z,18.02
2022-09-15T09:53:21.592Z,18.25
2022-09-15T09:55:50.242Z,18.20
2022-09-15T09:58:24.133Z,18.12
2022-09-15T10:00:54.427Z,17.93
2022-09-15T10:03:30.632Z,18.08
2022-09-15T10:06:07.670Z,18.11
2022-09-15T10:08:39.380Z,17.93
2022-09-15T10:11:10.448Z,17.98
2022-09-15T10:13:55.077Z,17.90
2022-09-15T10:16:24.656Z,18.09
2022-09-15T10:19:00.729Z,18.05
2022-09-15T10:21:29.241Z,18.26
2022-09-15T10:23:57.593Z,18.24
2022-09-15T10:26:46.140Z,18.38
2022-09-15T10:29:20.227Z,18.49
2022-09-15T10:31:50.059Z,18.14
2022-09-15T10:34:34.654Z,18.37
2022-09-15T10:37:09.945Z,18.45
2022-09-15T10:39:53.342Z,18.69
2022-09-15T10:42:33.321Z,18.56
2022-09-15T10:45:26.293Z,18.47
2022-09-15T10:48:13.116Z,18.60
2022-09-15T10:50:52.636Z,18.64
2022-09-15T10:53:30.156Z,18.76
2022-09-15T10:56:06.172Z,18.98
2022-09-15T10:58:49.456Z,19.24
2022-09-15T11:01:34.951Z,19.07
2022-09-15T11:04:41.496Z,19.06
2022-09-15T11:07:30.590Z,19.32
2022-09-15T11:10:12.740Z,19.14
2022-09-15T11:12:57.734Z,18.71
2022-09-15T11:15:54.995Z,18.46
2022-09-15T11:18:45.656Z,18.30
2022-09-15T11:21:34.082Z,18.14
2022-09-15T11:37:51.107Z,18.21
2022-09-15T11:40:24.814Z,18.19
2022-09-15T11:43:02.310Z,18.33
2022-09-15T11:45:46.017Z,18.25
2022-09-15T11:48:18.803Z,18.39
2022-09-15T11:50:52.216Z,18.48
2022-09-15T11:53:34.630Z,18.56
2022-09-15T11:56:13.654Z,18.96
2022-09-15T11:58:59.495Z,18.99
2022-09-15T12:01:34.217Z,19.05
2022-09-15T12:04:07.110Z,19.19
2022-09-15T12:06:45.359Z,19.07
2022-09-15T12:09:18.238Z,19.02
2022-09-15T12:11:49.419Z,19.02
2022-09-15T12:14:23.060Z,18.95
2022-09-15T12:16:54.327Z,18.80
2022-09-15T12:19:43.383Z,18.74
2022-09-15T12:22:21.370Z,18.69
2022-09-15T12:25:01.305Z,18.56
2022-09-15T12:27:31.292Z,18.57
2022-09-15T12:30:01.592Z,18.40
2022-09-15T12:32:30.601Z,18.42
2022-09-15T12:35:06.451Z,18.26
2022-09-15T12:37:43.451Z,18.37
2022-09-15T12:40:34.608Z,18.40
2022-09-15T12:43:06.468Z,18.22
2022-09-15T12:45:36.832Z,18.18
2022-09-15T12:48:08.724Z,18.20
2022-09-15T12:50:40.395Z,18.27
2022-09-15T12:53:18.754Z,18.45
2022-09-15T12:55:58.119Z,18.45
2022-09-15T12:58:34.878Z,18.63
2022-09-15T13:01:32.618Z,18.51
2022-09-15T13:04:24.344Z,18.95
2022-09-15T13:07:25.863Z,18.94
2022-09-15T13:10:00.332Z,18.82
2022-09-15T13:12:37.873Z,18.78
2022-09-15T13:15:14.726Z,18.45
2022-09-15T13:17:50.020Z,18.84
2022-09-15T13:20:38.535Z,19.01
2022-09-15T13:23:10.986Z,18.92
2022-09-15T13:25:45.080Z,18.93
2022-09-15T13:28:16.817Z,19.10
2022-09-15T13:31:01.184Z,19.35
2022-09-15T13:39:56.313Z,19.20
2022-09-15T13:42:41.259Z,18.91
2022-09-15T13:45:46.199Z,18.75
2022-09-15T13:48:29.425Z,18.66
2022-09-15T13:51:00.947Z,18.78
2022-09-15T13:53:43.112Z,18.84
2022-09-15T13:56:22.028Z,18.78
2022-09-15T13:58:57.590Z,18.82
2022-09-15T14:01:35.871Z,18.78
2022-09-15T14:04:10.988Z,18.74
2022-09-15T14:06:42.825Z,18.51
2022-09-15T14:09:17.151Z,18.39
2022-09-15T14:11:50.258Z,18.36
2022-09-15T14:14:36.211Z,18.21
2022-09-15T14:17:06.919Z,18.52
2022-09-15T14:19:38.247Z,18.58
2022-09-15T14:22:26.371Z,18.68
2022-09-15T14:24:56.167Z,19.10
2022-09-15T14:27:26.949Z,19.32
2022-09-15T14:29:58.021Z,19.24
2022-09-15T14:32:30.150Z,19.15
2022-09-15T14:35:01.310Z,19.37
2022-09-15T14:37:32.576Z,19.83
2022-09-15T14:40:03.441Z,20.21
2022-09-15T14:42:36.718Z,20.45
2022-09-15T14:48:17.826Z,19.92
2022-09-15T14:50:48.616Z,19.57
2022-09-15T14:53:21.169Z,19.36
2022-09-15T14:55:54.171Z,19.13
2022-09-15T14:58:26.375Z,19.13
2022-09-15T15:00:58.708Z,18.84
2022-09-15T15:03:36.298Z,18.86
2022-09-15T15:06:34.993Z,18.71
2022-09-15T15:09:04.058Z,18.54
2022-09-15T15:11:34.763Z,18.54
2022-09-15T15:14:07.485Z,18.62
2022-09-15T15:16:36.136Z,18.64
2022-09-15T15:19:06.473Z,18.35
2022-09-15T15:21:41.255Z,18.49
2022-09-15T15:24:18.144Z,18.44
2022-09-15T15:26:47.777Z,18.43
2022-09-15T15:29:44.439Z,18.24
2022-09-15T15:32:17.655Z,18.21
2022-09-15T15:34:55.976Z,18.05
2022-09-15T15:37:30.258Z,17.86
2022-09-15T15:40:00.911Z,17.94
2022-09-15T15:42:31.897Z,18.01
2022-09-15T15:45:05.331Z,18.00
2022-09-15T15:47:41.482Z,17.98
2022-09-15T15:50:15.649Z,18.04
2022-09-15T15:52:49.278Z,17.92
2022-09-15T15:55:21.842Z,17.83
2022-09-15T15:57:52.707Z,17.77
2022-09-15T16:00:25.162Z,17.66
2022-09-15T16:02:59.435Z,17.59
2022-09-15T16:05:30.870Z,17.70
2022-09-15T16:08:03.765Z,17.64
2022-09-15T16:10:40.844Z,17.63
2022-09-15T16:13:09.963Z,17.68
2022-09-15T16:15:38.305Z,17.66
2022-09-15T16:18:07.041Z,17.67
2022-09-15T16:20:37.244Z,17.72
2022-09-15T16:23:05.951Z,17.63
2022-09-15T16:25:38.278Z,17.58
2022-09-15T16:28:06.998Z,17.53
2022-09-15T16:30:36.121Z,17.49
2022-09-15T16:33:05.577Z,17.46
2022-09-15T16:35:40.985Z,17.33
2022-09-15T16:38:11.138Z,17.38
2022-09-15T16:40:39.562Z,17.43
2022-09-15T16:43:14.231Z,17.34
2022-09-15T16:45:45.196Z,17.20
2022-09-15T16:48:14.010Z,17.20
2022-09-15T16:51:09.067Z,17.17
2022-09-15T16:53:35.738Z,17.06
2022-09-15T16:56:05.876Z,16.88
2022-09-15T16:58:34.169Z,16.99
2022-09-15T17:01:04.143Z,17.00
2022-09-15T17:03:33.717Z,16.95
2022-09-15T17:06:06.456Z,17.10
2022-09-15T17:08:35.021Z,16.86
2022-09-15T17:11:08.138Z,16.86
2022-09-15T17:13:36.487Z,16.77
2022-09-15T17:16:04.920Z,16.76
2022-09-15T17:18:33.511Z,16.71
2022-09-15T17:21:03.643Z,16.81
2022-09-15T17:23:35.554Z,16.76
2022-09-15T17:26:07.814Z,16.72
2022-09-15T17:28:39.300Z,16.72
2022-09-15T17:31:13.556Z,16.73
2022-09-15T17:33:42.527Z,16.65
2022-09-15T17:36:12.767Z,16.63
2022-09-15T17:38:42.048Z,16.55
2022-09-15T17:41:15.203Z,16.57
2022-09-15T17:43:43.580Z,16.34
2022-09-15T17:46:13.849Z,16.31
2022-09-15T17:48:56.735Z,16.45
2022-09-15T17:51:26.937Z,16.39
2022-09-15T17:53:55.685Z,16.32
2022-09-15T17:56:24.177Z,16.18
2022-09-15T17:58:52.508Z,16.09
2022-09-15T18:01:21.141Z,16.19
2022-09-15T18:03:50.268Z,16.07
2022-09-15T18:06:18.482Z,16.05
2022-09-15T18:08:48.220Z,16.13
2022-09-15T18:11:16.863Z,16.12
2022-09-15T18:13:45.117Z,16.10
2022-09-15T18:16:15.500Z,16.09
2022-09-15T18:18:43.934Z,16.10
2022-09-15T18:21:24.862Z,16.08
2022-09-15T18:23:55.076Z,15.89
2022-09-15T18:26:26.275Z,16.08
2022-09-15T18:28:56.584Z,16.07
2022-09-15T18:31:26.946Z,16.12
2022-09-15T18:33:55.597Z,16.14
2022-09-15T18:36:24.565Z,16.10
2022-09-15T18:38:54.622Z,16.22
2022-09-15T18:41:23.159Z,16.16
2022-09-15T18:43:51.780Z,16.25
2022-09-15T18:46:20.988Z,16.21
2022-09-15T18:48:49.876Z,16.13
2022-09-15T18:51:29.074Z,16.11
2022-09-15T18:54:04.973Z,16.08
2022-09-15T18:56:33.822Z,16.07
2022-09-15T18:59:03.040Z,16.09
2022-09-15T19:01:32.974Z,16.07
2022-09-15T19:04:01.795Z,16.04
2022-09-15T19:06:30.944Z,16.08
2022-09-15T19:08:59.238Z,15.99
2022-09-15T19:11:30.767Z,16.07
2022-09-15T19:13:59.051Z,15.98
2022-09-15T19:16:46.560Z,15.96
2022-09-15T19:19:18.367Z,15.84
2022-09-15T19:21:47.140Z,15.96
2022-09-15T19:24:16.194Z,15.91
2022-09-15T19:26:49.211Z,15.96
2022-09-15T19:29:18.079Z,15.94
2022-09-15T19:31:46.755Z,15.94
2022-09-15T19:34:15.148Z,15.85
2022-09-15T19:36:47.111Z,15.84
2022-09-15T19:41:57.845Z,15.81
2022-09-15T19:44:26.647Z,15.79
2022-09-15T19:46:55.547Z,15.73
2022-09-15T19:49:24.045Z,15.81
2022-09-15T19:51:55.862Z,15.71
2022-09-15T19:54:29.860Z,15.66
2022-09-15T19:57:02.293Z,15.56
2022-09-15T19:59:31.992Z,15.56
2022-09-15T20:02:00.890Z,15.55
2022-09-15T20:04:29.483Z,15.59
2022-09-15T20:06:58.408Z,15.57
2022-09-15T20:09:26.971Z,15.60
2022-09-15T20:11:55.246Z,15.53
2022-09-15T20:14:25.739Z,15.60
2022-09-15T20:16:57.386Z,15.46
2022-09-15T20:19:31.948Z,15.53
2022-09-15T20:22:00.612Z,15.50
2022-09-15T20:24:31.255Z,15.46
2022-09-15T20:26:59.778Z,15.43
2022-09-15T20:29:29.537Z,15.33
2022-09-15T20:31:58.356Z,15.31
2022-09-15T20:34:26.731Z,15.29
2022-09-15T20:36:58.145Z,15.34
2022-09-15T20:39:27.599Z,15.27
2022-09-15T20:41:58.043Z,15.26
2022-09-15T20:44:26.222Z,15.25
2022-09-15T20:46:56.348Z,15.21
2022-09-15T20:49:24.751Z,15.16
2022-09-15T20:51:53.275Z,15.22
2022-09-15T20:54:21.814Z,15.16
2022-09-15T20:56:50.923Z,15.15
2022-09-15T20:59:19.633Z,15.11
2022-09-15T21:01:53.945Z,15.10
2022-09-15T21:04:23.679Z,15.09
2022-09-15T21:06:56.118Z,15.07
2022-09-15T21:09:24.395Z,15.08
2022-09-15T21:11:53.808Z,15.00
2022-09-15T21:14:22.677Z,15.02
2022-09-15T21:16:51.139Z,14.99
2022-09-15T21:19:19.275Z,15.01
2022-09-15T21:21:50.151Z,14.91
2022-09-15T21:24:18.782Z,14.95
2022-09-15T21:27:04.130Z,14.98
2022-09-15T21:29:35.016Z,14.91
2022-09-15T21:32:03.903Z,15.04
2022-09-15T21:34:34.202Z,14.94
2022-09-15T21:37:04.258Z,14.96
2022-09-15T21:39:33.550Z,14.97
2022-09-15T21:42:02.718Z,14.76
2022-09-15T21:44:32.980Z,14.80
2022-09-15T21:47:01.449Z,14.89
2022-09-15T21:49:29.821Z,14.82
2022-09-15T21:51:58.874Z,14.77
2022-09-15T21:54:28.740Z,14.73
2022-09-15T21:56:57.682Z,14.77
2022-09-15T21:59:26.088Z,14.70
2022-09-15T22:01:54.960Z,14.66
2022-09-15T22:04:23.327Z,14.65
2022-09-15T22:06:54.466Z,14.62
2022-09-15T22:09:25.127Z,14.62
2022-09-15T22:11:55.974Z,14.45
2022-09-15T22:14:24.606Z,14.50
2022-09-15T22:16:53.473Z,14.52
2022-09-15T22:19:24.874Z,14.41
2022-09-15T22:21:54.158Z,14.46
2022-09-15T22:24:23.012Z,14.37
2022-09-15T22:26:51.172Z,14.42
2022-09-15T22:29:21.703Z,14.43
2022-09-15T22:31:50.325Z,14.31
2022-09-15T22:34:20.228Z,14.31
2022-09-15T22:36:48.959Z,14.23
2022-09-15T22:39:17.668Z,14.27
2022-09-15T22:41:46.423Z,14.37
2022-09-15T22:44:22.394Z,14.35
2022-09-15T22:46:52.371Z,14.36
2022-09-15T22:49:21.519Z,14.23
2022-09-15T22:51:50.139Z,14.23
2022-09-15T22:54:18.424Z,13.89
2022-09-15T22:56:48.096Z,13.98
2022-09-15T22:59:17.118Z,13.99
2022-09-15T23:01:47.405Z,14.07
2022-09-15T23:04:16.565Z,13.86
2022-09-15T23:06:45.322Z,13.77
2022-09-15T23:09:14.495Z,13.86
2022-09-15T23:11:44.638Z,13.72
2022-09-15T23:14:15.432Z,13.84
2022-09-15T23:16:44.527Z,13.72
2022-09-15T23:19:15.978Z,13.72
2022-09-15T23:21:44.338Z,13.74
2022-09-15T23:24:14.323Z,13.73
2022-09-15T23:26:46.936Z,13.68
2022-09-15T23:29:15.326Z,13.74
2022-09-15T23:31:43.755Z,13.58
2022-09-15T23:34:12.163Z,13.68
2022-09-15T23:36:42.200Z,13.70
2022-09-15T23:39:11.136Z,13.64
2022-09-15T23:41:41.446Z,13.55
2022-09-15T23:44:10.095Z,13.61
2022-09-15T23:46:38.635Z,13.58
2022-09-15T23:49:08.101Z,13.31
2022-09-15T23:51:36.581Z,13.31
2022-09-15T23:54:07.339Z,13.37
2022-09-15T23:56:35.643Z,13.35
2022-09-15T23:59:05.108Z,13.35
